aviador You're here:

GMML Decoded Metar

LAAYOUNE/HASSAN in OCCIDENTAL SAHARA
Report Time2017-11-24 20:00:00
UTC Time2017-11-24 20:26:36
Flight Rules vfr VFR
Wind140° at 08 kt
W.Decomp.*RWY 20: 4.5 kt HW 6.6 kt LCW
RWY 22: 1.9 kt HW 7.8 kt LCW
W.Rank140° ranks 17
Current wind is below 140° avg. (9.6)
Visibility9999 m
Phenomena:N/A
Clouds:N/A
Expected CloudBase > 10,400 ft AGL from Temp-Dew spread
CeilingNone
Temp26°C (ISA +11)
Dew Point00°C (18% RH)
AAT21.1°C
QNH1016 hPa
Density Alt1,286 ft
Elevation20 ft
Report Wrong Elevation
Raw Report
GMML 242000Z 14008KT CAVOK 26/00 Q1016 NOSIG=

Extra information for GMML:More info

Metar Taf Metar & Taf Last 4 Metars F.Rules Stats Wind Profile Meteogram Temp Stats Airport Information Weather charts Add Link Nearby VenuesMetar ALERT Operation Metar Decoded Social comments